createdAt,value
2022-11-20T00:00:19.022Z,27.87
2022-11-20T00:05:21.887Z,26.60
2022-11-20T00:10:23.543Z,28.07
2022-11-20T00:15:25.800Z,27.93
2022-11-20T00:20:27.460Z,30.63
2022-11-20T00:25:29.117Z,27.77
2022-11-20T00:30:30.776Z,24.75
2022-11-20T00:35:32.461Z,26.00
2022-11-20T00:40:34.120Z,30.70
2022-11-20T00:45:35.772Z,27.70
2022-11-20T00:50:37.506Z,24.90
2022-11-20T00:55:39.249Z,26.70
2022-11-20T01:00:40.986Z,22.33
2022-11-20T01:05:42.709Z,26.43
2022-11-20T01:10:44.373Z,25.97
2022-11-20T01:15:46.020Z,25.50
2022-11-20T01:20:48.211Z,25.30
2022-11-20T01:25:49.865Z,28.83
2022-11-20T01:30:51.780Z,23.00
2022-11-20T01:35:54.017Z,27.10
2022-11-20T01:40:56.804Z,26.30
2022-11-20T01:46:14.184Z,22.90
2022-11-20T01:51:39.130Z,28.97
2022-11-20T01:56:43.880Z,26.57
2022-11-20T02:01:45.657Z,29.87
2022-11-20T02:06:52.985Z,23.50
2022-11-20T02:11:55.923Z,27.20
2022-11-20T02:16:57.635Z,25.58
2022-11-20T02:22:14.932Z,29.90
2022-11-20T02:27:17.997Z,26.37
2022-11-20T02:32:33.762Z,24.30
2022-11-20T02:37:38.246Z,23.17
2022-11-20T02:42:39.927Z,27.20
2022-11-20T02:47:41.581Z,22.58
2022-11-20T02:52:43.449Z,24.10
2022-11-20T02:57:45.143Z,26.90
2022-11-20T03:02:47.176Z,21.33
2022-11-20T03:07:48.834Z,25.60
2022-11-20T03:12:56.297Z,25.13
2022-11-20T03:17:57.994Z,22.07
2022-11-20T03:22:59.731Z,22.13
2022-11-20T03:28:01.410Z,28.27
2022-11-20T03:33:03.159Z,26.70
2022-11-20T03:38:04.818Z,19.87
2022-11-20T03:43:06.484Z,27.30
2022-11-20T03:48:08.151Z,22.17
2022-11-20T03:53:09.807Z,20.50
2022-11-20T03:58:11.611Z,25.20
2022-11-20T04:03:13.285Z,20.83
2022-11-20T04:08:14.971Z,20.57
2022-11-20T04:13:16.627Z,20.60
2022-11-20T04:18:18.300Z,19.60
2022-11-20T04:23:22.386Z,17.17
2022-11-20T04:28:27.508Z,20.87
2022-11-20T04:33:33.887Z,21.10
2022-11-20T04:38:36.052Z,21.57
2022-11-20T04:43:37.732Z,18.73
2022-11-20T04:48:39.404Z,18.53
2022-11-20T04:53:41.443Z,20.57
2022-11-20T04:58:43.246Z,16.90
2022-11-20T05:03:45.777Z,19.47
2022-11-20T05:08:47.507Z,17.83
2022-11-20T05:13:50.912Z,17.13
2022-11-20T05:18:54.324Z,18.43
2022-11-20T05:23:55.976Z,16.10
2022-11-20T05:28:57.843Z,16.83
2022-11-20T05:33:59.543Z,20.43
2022-11-20T05:39:01.901Z,21.10
2022-11-20T05:44:04.207Z,16.27
2022-11-20T05:49:05.884Z,16.73
2022-11-20T05:54:07.578Z,19.37
2022-11-20T05:59:09.311Z,20.67
2022-11-20T06:04:10.996Z,17.47
2022-11-20T06:09:12.692Z,16.17
2022-11-20T06:14:14.347Z,15.50
2022-11-20T06:19:16.280Z,17.75
2022-11-20T06:24:18.755Z,20.07
2022-11-20T06:29:20.798Z,16.87
2022-11-20T06:34:22.655Z,17.53
2022-11-20T06:39:24.550Z,15.87
2022-11-20T06:44:26.861Z,16.43
2022-11-20T06:49:28.554Z,16.17
2022-11-20T06:54:30.213Z,17.50
2022-11-20T06:59:31.870Z,20.73
2022-11-20T07:04:33.535Z,18.10
2022-11-20T07:09:35.213Z,16.90
2022-11-20T07:14:36.902Z,20.50
2022-11-20T07:19:38.583Z,17.70
2022-11-20T07:24:45.700Z,19.07
2022-11-20T07:29:47.727Z,17.80
2022-11-20T07:34:49.454Z,21.67
2022-11-20T07:39:51.111Z,14.83
2022-11-20T07:44:52.759Z,15.47
2022-11-20T07:49:54.497Z,18.13
2022-11-20T07:54:56.180Z,16.30
2022-11-20T07:59:57.873Z,19.03
2022-11-20T08:04:59.533Z,22.10
2022-11-20T08:10:01.189Z,17.10
2022-11-20T08:15:05.239Z,22.43
2022-11-20T08:20:09.579Z,26.67
2022-11-20T08:25:11.257Z,22.13
2022-11-20T08:30:13.584Z,25.03
2022-11-20T08:35:15.261Z,22.77
2022-11-20T08:40:19.567Z,26.77
2022-11-20T08:45:21.635Z,33.13
2022-11-20T08:50:23.382Z,29.77
2022-11-20T08:55:25.165Z,26.03
2022-11-20T09:00:27.140Z,24.83
2022-11-20T09:05:28.883Z,31.83
2022-11-20T09:10:30.572Z,21.97
2022-11-20T09:15:32.716Z,29.83
2022-11-20T09:20:34.562Z,23.00
2022-11-20T09:25:36.247Z,17.73
2022-11-20T09:30:38.026Z,16.52
2022-11-20T09:35:39.792Z,16.88
2022-11-20T09:41:05.508Z,12.88
2022-11-20T09:46:10.303Z,14.77
2022-11-20T09:51:23.152Z,13.98
2022-11-20T09:56:26.458Z,13.63
2022-11-20T10:01:32.772Z,15.35
2022-11-20T10:07:31.499Z,16.10
2022-11-20T10:12:43.015Z,16.35
2022-11-20T10:17:56.726Z,19.05
2022-11-20T10:23:53.875Z,19.17
2022-11-20T10:29:12.774Z,15.82
2022-11-20T10:34:33.198Z,14.27
2022-11-20T10:39:50.565Z,12.77
2022-11-20T10:45:05.817Z,12.77
2022-11-20T10:50:21.886Z,12.80
2022-11-20T10:55:40.148Z,12.30
2022-11-20T11:00:41.995Z,8.88
2022-11-20T11:06:05.024Z,9.50
2022-11-20T11:11:28.978Z,8.52
2022-11-20T11:16:30.656Z,8.93
2022-11-20T11:21:32.372Z,8.90
2022-11-20T11:26:34.087Z,10.52
2022-11-20T11:31:36.371Z,9.98
2022-11-20T11:36:38.623Z,9.45
2022-11-20T11:41:40.979Z,11.20
2022-11-20T11:46:53.747Z,13.75
2022-11-20T11:52:17.947Z,10.27
2022-11-20T11:57:38.096Z,11.70
2022-11-20T12:02:45.579Z,10.52
2022-11-20T12:08:18.059Z,12.50
2022-11-20T12:13:35.046Z,12.90
2022-11-20T12:18:36.735Z,11.27
2022-11-20T12:23:57.685Z,10.82
2022-11-20T12:29:34.432Z,12.90
2022-11-20T12:35:00.292Z,14.13
2022-11-20T12:40:15.920Z,13.45
2022-11-20T12:45:46.857Z,14.23
2022-11-20T12:51:16.432Z,17.98
2022-11-20T12:56:33.484Z,14.07
2022-11-20T13:02:16.132Z,16.15
2022-11-20T13:07:19.028Z,16.10
2022-11-20T13:12:33.889Z,13.73
2022-11-20T13:17:38.217Z,11.73
2022-11-20T13:22:48.423Z,10.57
2022-11-20T13:27:50.473Z,12.27
2022-11-20T13:32:58.450Z,8.85
2022-11-20T13:38:13.554Z,10.73
2022-11-20T13:43:39.799Z,10.57
2022-11-20T13:48:44.596Z,10.63
2022-11-20T13:54:07.309Z,10.38
2022-11-20T13:59:27.927Z,9.73
2022-11-20T14:04:39.225Z,9.82
2022-11-20T14:09:51.220Z,12.10
2022-11-20T14:14:55.480Z,10.10
2022-11-20T14:20:05.448Z,12.88
2022-11-20T14:25:13.161Z,12.73
2022-11-20T14:30:20.578Z,11.13
2022-11-20T14:35:26.585Z,13.60
2022-11-20T14:40:32.398Z,11.02
2022-11-20T14:45:34.337Z,11.80
2022-11-20T14:50:36.528Z,10.27
2022-11-20T14:55:39.400Z,13.30
2022-11-20T15:00:41.144Z,13.65
2022-11-20T15:05:48.600Z,12.77
2022-11-20T15:10:52.184Z,16.05
2022-11-20T15:15:56.576Z,15.30
2022-11-20T15:21:02.233Z,15.30
2022-11-20T15:26:06.794Z,12.68
2022-11-20T15:31:12.887Z,14.40
2022-11-20T15:36:15.189Z,15.30
2022-11-20T15:41:16.927Z,12.98
2022-11-20T15:46:27.457Z,15.40
2022-11-20T15:51:32.876Z,14.00
2022-11-20T15:56:34.572Z,14.13
2022-11-20T16:01:36.708Z,16.42
2022-11-20T16:06:40.142Z,18.03
2022-11-20T16:11:41.803Z,18.20
2022-11-20T16:16:44.435Z,16.25
2022-11-20T16:21:46.295Z,14.07
2022-11-20T16:26:48.004Z,15.17
2022-11-20T16:31:49.756Z,15.23
2022-11-20T16:36:51.414Z,13.73
2022-11-20T16:41:53.075Z,16.13
2022-11-20T16:46:55.204Z,13.02
2022-11-20T16:51:56.864Z,15.70
2022-11-20T16:56:58.523Z,16.33
2022-11-20T17:02:00.206Z,15.35
2022-11-20T17:07:07.861Z,14.65
2022-11-20T17:12:10.189Z,16.25
2022-11-20T17:17:11.928Z,13.77
2022-11-20T17:22:13.583Z,17.77
2022-11-20T17:27:15.272Z,16.45
2022-11-20T17:32:16.959Z,15.45
2022-11-20T17:37:18.627Z,14.23
2022-11-20T17:42:29.851Z,18.37
2022-11-20T17:47:31.659Z,33.43
2022-11-20T17:52:33.309Z,26.08
2022-11-20T17:57:53.092Z,17.70
2022-11-20T18:02:55.569Z,22.42
2022-11-20T18:07:57.286Z,21.35
2022-11-20T18:12:59.010Z,21.15
2022-11-20T18:18:00.659Z,29.08
2022-11-20T18:23:02.344Z,23.03
2022-11-20T18:28:04.033Z,22.27
2022-11-20T18:33:05.802Z,22.92
2022-11-20T18:38:07.491Z,23.02
2022-11-20T18:43:29.621Z,22.67
2022-11-20T18:48:32.191Z,17.00
2022-11-20T18:53:36.702Z,18.80
2022-11-20T18:58:39.355Z,24.63
2022-11-20T19:03:41.027Z,23.67
2022-11-20T19:08:43.282Z,19.47
2022-11-20T19:13:45.558Z,23.10
2022-11-20T19:18:48.466Z,22.17
2022-11-20T19:23:52.266Z,24.10
2022-11-20T19:28:54.360Z,22.83
2022-11-20T19:33:58.091Z,29.57
2022-11-20T19:39:00.829Z,24.90
2022-11-20T19:44:05.009Z,27.63
2022-11-20T19:49:10.272Z,28.23
2022-11-20T19:54:12.069Z,26.03
2022-11-20T19:59:14.582Z,32.80
2022-11-20T20:04:16.297Z,23.13
2022-11-20T20:09:17.946Z,26.47
2022-11-20T20:14:20.090Z,28.33
2022-11-20T20:19:22.203Z,24.75
2022-11-20T20:24:24.147Z,27.13
2022-11-20T20:29:26.106Z,31.27
2022-11-20T20:34:32.103Z,29.95
2022-11-20T20:39:33.826Z,28.33
2022-11-20T20:45:13.855Z,29.45
2022-11-20T20:50:15.743Z,26.40
2022-11-20T20:55:17.535Z,25.63
2022-11-20T21:00:19.468Z,25.93
2022-11-20T21:05:21.112Z,27.50
2022-11-20T21:10:23.979Z,24.85
2022-11-20T21:15:26.005Z,29.13
2022-11-20T21:20:46.303Z,28.10
2022-11-20T21:25:48.009Z,24.83
2022-11-20T21:30:49.728Z,28.08
2022-11-20T21:35:51.391Z,25.42
2022-11-20T21:40:53.037Z,30.63
2022-11-20T21:46:00.941Z,31.00
2022-11-20T21:51:11.250Z,30.15
2022-11-20T21:56:18.968Z,30.20
2022-11-20T22:01:27.087Z,27.37
2022-11-20T22:06:33.963Z,28.52
2022-11-20T22:11:35.651Z,26.92
2022-11-20T22:16:38.106Z,30.67
2022-11-20T22:21:40.597Z,30.20
2022-11-20T22:26:42.548Z,27.13
2022-11-20T22:31:44.625Z,31.60
2022-11-20T22:36:46.332Z,32.13
2022-11-20T22:41:48.004Z,26.55
2022-11-20T22:46:49.659Z,29.45
2022-11-20T22:51:51.348Z,29.08
2022-11-20T22:56:53.050Z,30.05
2022-11-20T23:01:54.703Z,28.83
2022-11-20T23:06:56.577Z,34.83
2022-11-20T23:11:58.236Z,31.77
2022-11-20T23:17:00.016Z,34.97
2022-11-20T23:22:01.705Z,31.85
2022-11-20T23:27:03.408Z,36.63
2022-11-20T23:32:05.098Z,35.38
2022-11-20T23:37:06.802Z,34.13
2022-11-20T23:42:08.503Z,36.78
2022-11-20T23:47:10.160Z,37.85
2022-11-20T23:52:11.881Z,35.70
2022-11-20T23:57:13.552Z,38.08
